Arcadia, South Carolina
Current Conditions -  °F | °C
As of 5:55 AM on Sunday 23 Nov 2014 (Local Time) from KSPA Reporting Station
Light Rain Light Rain  
Wind Chill: 39°   Ceiling: 800
Heat Index: 43°   Visibility: 10mi
Dew Point: 39°   Wind: 7mph
Humidity: 87%   Direction: 20°NNE
Pressure: 30.21"   Gusts: NA
Location:  34.96°N, 81.99°W
Report Text: KSPA 231055Z AUTO 02006KT 10SM -RA OVC008 06/04 A3021 RMK AO2 P0007
Loading
Personal Weather Stations






























Interactive Weather Map New forecast layout! Learn more

10-Day Weather Forecast

Advertisements
Track Severe Weather on mobile